Time;durP1;ratioP1;P1;durP2;ratioP2;P2;SDS_P1;SDS_P2;PMS_P1;PMS_P2;Temp;Humidity;BMP_temperature;BMP_pressure;BME280_temperature;BME280_humidity;BME280_pressure;Samples;Min_cycle;Max_cycle;Signal;HPM_P1;HPM_P2
2022/05/02 00:02:14;;;;;;;13.95;7.20;;;11.70;99.90;;;11.81;72.15;101374.91;5206154;28;20041;-69
2022/05/02 00:04:46;;;;;;;13.32;6.32;;;11.70;99.90;;;11.73;72.25;101372.75;5207607;28;20387;-68
2022/05/02 00:07:19;;;;;;;11.20;6.85;;;11.60;99.90;;;11.69;72.55;101377.88;5207544;28;20047;-68
2022/05/02 00:09:52;;;;;;;12.55;7.00;;;11.60;99.90;;;11.66;72.76;101369.91;5207699;28;20045;-68
2022/05/02 00:12:24;;;;;;;12.80;7.60;;;11.50;99.90;;;11.68;72.96;101372.59;5206749;28;20056;-69
2022/05/02 00:14:56;;;;;;;13.25;7.22;;;11.60;99.90;;;11.67;72.71;101371.72;5207313;28;20045;-69
2022/05/02 00:20:14;;;;;;;12.27;7.28;;;11.50;99.90;;;11.65;72.82;101364.63;5205667;28;20045;-68
2022/05/02 00:22:48;;;;;;;11.95;7.30;;;11.50;99.90;;;11.65;73.29;101362.91;5206964;28;20050;-69
2022/05/02 00:25:20;;;;;;;15.07;6.97;;;11.50;99.90;;;11.67;73.47;101361.28;5207070;28;20075;-69
2022/05/02 00:27:52;;;;;;;12.38;7.18;;;11.50;99.90;;;11.72;73.72;101363.16;5206832;28;20045;-69
2022/05/02 00:30:24;;;;;;;13.98;7.07;;;11.50;99.90;;;11.74;74.05;101362.41;5206786;28;20049;-69
2022/05/02 00:32:57;;;;;;;11.52;6.75;;;11.60;99.90;;;11.72;74.26;101356.22;5206558;28;20490;-69
2022/05/02 00:35:29;;;;;;;12.02;7.03;;;11.60;99.90;;;11.72;74.14;101357.94;5206590;28;20132;-69
2022/05/02 00:38:03;;;;;;;12.90;7.32;;;11.50;99.90;;;11.73;73.54;101349.25;5206488;28;20417;-68
2022/05/02 00:40:35;;;;;;;11.63;7.32;;;11.60;99.90;;;11.73;73.60;101350.16;5206663;28;20045;-68
2022/05/02 00:43:07;;;;;;;10.20;6.65;;;11.60;99.90;;;11.74;73.51;101343.25;5206064;28;20045;-68
2022/05/02 00:45:39;;;;;;;14.13;7.03;;;11.60;99.90;;;11.72;74.00;101345.75;5204237;28;20052;-69
2022/05/02 00:48:11;;;;;;;13.32;6.97;;;11.60;99.90;;;11.71;74.33;101345.72;5206583;28;20045;-69
2022/05/02 00:50:47;;;;;;;12.80;7.25;;;11.60;99.90;;;11.69;74.90;101349.16;5207003;28;20083;-68
2022/05/02 00:53:24;;;;;;;13.23;7.50;;;11.60;99.90;;;11.70;75.08;101347.44;5203870;28;20057;-68
2022/05/02 00:55:56;;;;;;;13.48;7.75;;;11.60;99.90;;;11.68;75.66;101342.16;5202390;28;20049;-69
2022/05/02 00:58:28;;;;;;;11.15;6.75;;;11.50;99.90;;;11.67;75.82;101336.84;5205174;28;20069;-69
2022/05/02 01:01:01;;;;;;;12.00;6.60;;;11.50;99.90;;;11.64;76.02;101340.25;5206750;28;20059;-69
2022/05/02 01:03:35;;;;;;;11.57;7.00;;;11.50;99.90;;;11.64;76.21;101340.25;5206396;28;20053;-68
2022/05/02 01:08:59;;;;;;;13.38;6.47;;;11.50;99.90;;;11.68;75.21;101342.16;5206500;28;20050;-68
2022/05/02 01:11:31;;;;;;;12.10;6.43;;;11.50;99.90;;;11.67;76.26;101340.38;5206167;28;20414;-68
2022/05/02 01:14:03;;;;;;;12.35;7.43;;;11.50;99.90;;;11.63;77.09;101338.47;5205937;28;20494;-68
2022/05/02 01:16:35;;;;;;;13.68;7.05;;;11.50;99.90;;;11.62;77.47;101343.63;5206602;28;20046;-68
2022/05/02 01:19:07;;;;;;;14.63;7.38;;;11.50;99.90;;;11.60;78.01;101337.44;5206272;28;20100;-69
2022/05/02 01:21:45;;;;;;;11.55;6.35;;;11.50;99.90;;;11.58;78.26;101334.78;5205920;28;20053;-68
2022/05/02 01:24:17;;;;;;;12.82;7.20;;;11.50;99.90;;;11.56;78.71;101328.63;5206348;28;20049;-69
2022/05/02 01:26:49;;;;;;;14.07;7.00;;;11.40;99.90;;;11.54;78.89;101331.97;5205740;28;20501;-68
2022/05/02 01:29:21;;;;;;;14.50;7.00;;;11.40;99.90;;;11.51;78.93;101330.16;5205949;28;20507;-68
2022/05/02 01:31:54;;;;;;;12.70;7.22;;;11.40;99.90;;;11.49;79.23;101325.72;5205804;28;20406;-69
2022/05/02 01:34:26;;;;;;;12.10;7.22;;;11.40;99.90;;;11.47;79.27;101325.63;5205927;28;20049;-67
2022/05/02 01:37:00;;;;;;;12.52;6.82;;;11.30;99.90;;;11.45;79.50;101319.47;5206417;28;20055;-68
2022/05/02 01:39:32;;;;;;;10.48;6.50;;;11.30;99.90;;;11.41;79.47;101314.97;5205937;28;20045;-68
2022/05/02 01:42:06;;;;;;;11.40;6.68;;;11.30;99.90;;;11.36;79.61;101308.69;5205541;28;20045;-69
2022/05/02 01:44:40;;;;;;;12.52;6.50;;;11.20;99.90;;;11.32;79.48;101314.59;5205970;28;20046;-69
2022/05/02 01:47:12;;;;;;;11.63;6.72;;;11.20;99.90;;;11.27;78.99;101310.91;5206074;28;20049;-68
2022/05/02 01:49:44;;;;;;;11.02;6.32;;;11.20;99.90;;;11.27;78.64;101305.69;5205972;28;20045;-68
2022/05/02 01:52:17;;;;;;;9.98;6.18;;;11.20;99.90;;;11.28;78.43;101302.22;5205321;28;20056;-69
2022/05/02 01:54:49;;;;;;;11.15;6.13;;;11.20;99.90;;;11.29;78.89;101304.03;5206191;28;20072;-69
2022/05/02 01:57:21;;;;;;;13.13;7.22;;;11.20;99.90;;;11.28;78.73;101299.63;5205530;28;20049;-69
2022/05/02 01:59:54;;;;;;;14.27;6.63;;;11.20;99.90;;;11.26;79.10;101294.34;5205821;28;20137;-68
2022/05/02 02:02:25;;;;;;;10.52;6.78;;;11.10;99.90;;;11.23;78.95;101298.56;5204861;28;20080;-69
2022/05/02 02:07:48;;;;;;;13.48;7.10;;;11.10;99.90;;;11.13;78.96;101300.78;5205422;28;20045;-69
2022/05/02 02:10:21;;;;;;;11.25;6.60;;;11.00;99.90;;;11.16;78.67;101302.66;5205532;28;20133;-69
2022/05/02 02:12:53;;;;;;;12.57;6.38;;;11.00;99.90;;;11.16;78.91;101301.78;5204807;28;20389;-68
2022/05/02 02:15:25;;;;;;;10.23;6.50;;;11.10;99.90;;;11.12;78.82;101306.84;5205121;28;20095;-68
2022/05/02 02:17:57;;;;;;;12.52;6.72;;;11.00;99.90;;;11.08;78.91;101309.25;5205487;28;20050;-68
2022/05/02 02:20:29;;;;;;;11.38;7.28;;;11.00;99.90;;;11.06;79.36;101317.03;5205111;28;20053;-68
2022/05/02 02:23:04;;;;;;;13.02;7.15;;;11.00;99.90;;;11.07;79.75;101303.16;5204941;28;20759;-68
2022/05/02 02:25:38;;;;;;;10.65;6.85;;;11.00;99.90;;;11.11;79.99;101305.06;5205693;28;20501;-69
2022/05/02 02:28:10;;;;;;;11.05;6.32;;;11.00;99.90;;;11.11;80.29;101305.06;5204989;28;20375;-68
2022/05/02 02:30:43;;;;;;;12.15;7.25;;;11.00;99.90;;;11.12;80.29;101301.63;5205375;28;20067;-68
2022/05/02 02:33:15;;;;;;;12.27;7.22;;;11.00;99.90;;;11.08;80.41;101304.97;5204959;28;20080;-68
2022/05/02 02:35:47;;;;;;;11.35;7.25;;;10.90;99.90;;;11.07;80.37;101307.47;5205297;28;20106;-69
2022/05/02 02:38:20;;;;;;;12.18;6.78;;;11.00;99.90;;;11.07;80.40;101308.38;5205183;28;20057;-68
2022/05/02 02:40:53;;;;;;;11.60;7.13;;;11.00;99.90;;;11.12;80.21;101306.84;5204753;28;20049;-69
2022/05/02 02:43:25;;;;;;;14.38;7.20;;;11.00;99.90;;;11.17;80.07;101303.53;5204482;28;20050;-69
2022/05/02 02:45:57;;;;;;;12.93;7.20;;;11.00;99.90;;;11.19;79.71;101291.44;5205060;28;20739;-69
2022/05/02 02:48:29;;;;;;;11.68;7.10;;;11.00;99.90;;;11.21;79.46;101293.28;5204877;28;20483;-68
2022/05/02 02:51:01;;;;;;;10.50;5.75;;;11.10;99.90;;;11.25;79.30;101294.28;5203343;28;20418;-69
2022/05/02 02:53:35;;;;;;;12.63;7.50;;;11.10;99.90;;;11.26;79.37;101288.25;5204112;28;20053;-69
2022/05/02 02:56:07;;;;;;;12.85;7.03;;;11.10;99.90;;;11.27;79.91;101285.69;5204688;28;20056;-68
2022/05/02 02:58:39;;;;;;;11.45;6.88;;;11.20;99.90;;;11.26;80.16;101288.25;5204522;28;20045;-68
2022/05/02 03:01:11;;;;;;;11.95;6.65;;;11.20;99.90;;;11.24;80.93;101287.31;5204849;28;20046;-69
2022/05/02 03:03:43;;;;;;;10.88;6.97;;;11.10;99.90;;;11.22;81.45;101283.75;5204427;28;20053;-69
2022/05/02 03:06:14;;;;;;;15.35;7.55;;;11.10;99.90;;;11.21;81.60;101280.22;5204882;28;20071;-68
2022/05/02 03:08:47;;;;;;;12.70;7.40;;;11.10;99.90;;;11.21;81.64;101280.22;5204482;28;20132;-68
2022/05/02 03:11:19;;;;;;;14.88;7.53;;;11.10;99.90;;;11.21;81.34;101284.56;5204437;28;20067;-69
2022/05/02 03:13:51;;;;;;;14.88;7.43;;;11.10;99.90;;;11.20;80.64;101282.78;5204186;28;20053;-68
2022/05/02 03:16:23;;;;;;;13.65;7.07;;;11.10;99.90;;;11.22;80.28;101279.41;5205489;28;20064;-68
2022/05/02 03:18:55;;;;;;;15.75;7.75;;;11.10;99.90;;;11.23;80.09;101277.69;5208965;28;20471;-69
2022/05/02 03:21:27;;;;;;;19.30;11.60;;;11.10;99.90;;;11.24;80.30;101275.16;5208872;28;20056;-68
2022/05/02 03:24:01;;;;;;;12.65;7.38;;;11.10;99.90;;;11.23;80.13;101273.38;5208738;28;20414;-68
2022/05/02 03:26:33;;;;;;;11.25;6.72;;;11.10;99.90;;;11.23;80.18;101272.47;5208733;28;20578;-68
2022/05/02 03:29:05;;;;;;;12.30;7.40;;;11.10;99.90;;;11.23;80.59;101272.47;5208720;28;20107;-68
2022/05/02 03:31:37;;;;;;;13.10;7.28;;;11.10;99.90;;;11.21;80.73;101271.50;5208165;28;20132;-68
2022/05/02 03:34:09;;;;;;;12.25;8.23;;;11.10;99.90;;;11.21;80.84;101269.78;5208557;28;20053;-69
2022/05/02 03:36:41;;;;;;;12.35;7.10;;;11.10;99.90;;;11.20;80.92;101264.50;5208765;28;20057;-69
2022/05/02 03:39:14;;;;;;;11.07;7.07;;;11.10;99.90;;;11.20;80.86;101256.69;5208200;28;20046;-69
2022/05/02 03:41:46;;;;;;;13.02;6.80;;;11.10;99.90;;;11.19;80.74;101260.13;5208176;28;20517;-69
2022/05/02 03:44:18;;;;;;;11.35;7.22;;;11.00;99.90;;;11.18;81.10;101263.56;5208721;28;20525;-68
2022/05/02 03:46:50;;;;;;;13.20;8.15;;;11.10;99.90;;;11.15;81.04;101259.13;5208580;28;20049;-68
2022/05/02 03:49:22;;;;;;;13.02;7.78;;;11.00;99.90;;;11.14;81.04;101258.22;5209155;28;20494;-69
2022/05/02 03:51:54;;;;;;;12.52;7.28;;;11.00;99.90;;;11.15;80.89;101261.75;5207845;28;20055;-68
2022/05/02 03:54:27;;;;;;;13.15;7.53;;;11.00;99.90;;;11.13;80.84;101266.88;5229805;23;20049;-84
2022/05/02 03:56:59;;;;;;;13.85;7.22;;;11.00;99.90;;;11.06;80.97;101259.63;5209405;28;20041;-84
2022/05/02 03:59:31;;;;;;;13.73;7.10;;;11.00;99.90;;;11.13;81.38;101261.66;5215432;28;20516;-84
2022/05/02 04:02:04;;;;;;;12.35;6.93;;;11.00;99.90;;;11.16;81.13;101257.41;5215274;28;20061;-84
2022/05/02 04:04:36;;;;;;;14.55;7.82;;;11.00;99.90;;;11.16;80.95;101260.03;5217846;28;20049;-84
2022/05/02 04:07:08;;;;;;;15.68;7.85;;;11.00;99.90;;;11.12;80.58;101257.28;5215777;28;20063;-83
2022/05/02 04:09:42;;;;;;;12.50;7.18;;;11.00;99.90;;;11.14;80.54;101260.81;5215311;28;20061;-84
2022/05/02 04:12:13;;;;;;;11.95;7.10;;;11.00;99.90;;;11.13;80.87;101260.75;5216155;28;20053;-84
2022/05/02 04:14:46;;;;;;;14.13;7.60;;;11.00;99.90;;;11.12;80.90;101257.28;5214598;28;20048;-84
2022/05/02 04:17:18;;;;;;;11.80;8.07;;;11.00;99.90;;;11.12;80.90;101262.50;5215711;28;20041;-83
2022/05/02 04:19:50;;;;;;;10.60;6.90;;;11.00;99.90;;;11.11;80.48;101262.44;5215162;28;20495;-84
2022/05/02 04:22:22;;;;;;;14.93;7.18;;;11.00;99.90;;;11.12;80.34;101267.72;5214827;28;20056;-84
2022/05/02 04:24:55;;;;;;;11.75;7.03;;;11.00;99.90;;;11.12;80.22;101261.59;5215282;28;20798;-83
2022/05/02 04:27:27;;;;;;;12.25;6.82;;;11.00;99.90;;;11.12;80.12;101265.09;5215133;28;20046;-84
2022/05/02 04:29:59;;;;;;;12.55;6.93;;;11.00;99.90;;;11.14;80.11;101268.66;5215011;28;20053;-84
2022/05/02 04:32:32;;;;;;;11.48;6.75;;;11.00;99.90;;;11.11;79.86;101268.53;5215638;28;20503;-83
2022/05/02 04:35:05;;;;;;;10.02;6.05;;;11.00;99.90;;;11.09;79.43;101271.94;5215561;28;20060;-84
2022/05/02 04:37:37;;;;;;;10.15;7.07;;;11.00;99.90;;;11.07;79.20;101271.84;5215590;28;20136;-85
2022/05/02 04:40:10;;;;;;;11.70;7.20;;;11.00;99.90;;;11.08;78.86;101278.88;5215639;28;20045;-83
2022/05/02 04:42:42;;;;;;;13.68;6.97;;;11.00;99.90;;;11.07;78.46;101271.84;5215776;28;20053;-85
2022/05/02 04:45:14;;;;;;;13.63;6.57;;;11.00;99.90;;;11.09;78.37;101266.72;5216023;28;20515;-84
2022/05/02 04:47:46;;;;;;;11.90;6.50;;;11.00;99.90;;;11.08;78.59;101260.59;5215910;28;20049;-84
2022/05/02 04:50:18;;;;;;;12.43;7.03;;;11.00;99.90;;;11.09;78.25;101264.09;5217042;28;20060;-84
2022/05/02 04:52:50;;;;;;;13.52;6.80;;;11.00;99.90;;;11.10;78.26;101277.19;5216558;28;20041;-85
2022/05/02 04:55:24;;;;;;;12.45;6.85;;;11.00;99.90;;;11.12;78.04;101272.94;5215829;28;20192;-83
2022/05/02 04:57:55;;;;;;;11.27;6.55;;;11.00;99.90;;;11.15;78.00;101266.97;5215549;28;20049;-84
2022/05/02 05:00:28;;;;;;;13.77;6.90;;;11.00;99.90;;;11.20;77.98;101269.72;5215482;28;20057;-82
2022/05/02 05:02:59;;;;;;;13.13;6.60;;;11.10;99.90;;;11.24;77.72;101274.25;5215231;28;20052;-83
2022/05/02 05:05:32;;;;;;;15.07;7.15;;;11.10;99.90;;;11.26;77.55;101272.59;5215960;28;20534;-83
2022/05/02 05:08:04;;;;;;;11.98;7.15;;;11.10;99.90;;;11.28;77.45;101277.06;5216507;28;20053;-83
2022/05/02 05:10:52;;;;;;;14.68;7.32;;;11.10;99.90;;;11.32;77.21;101280.66;5217150;28;20049;-84
2022/05/02 05:13:28;;;;;;;11.13;6.68;;;11.20;99.90;;;11.34;77.33;101272.03;5216727;28;20049;-84
2022/05/02 05:16:27;;;;;;;13.02;7.07;;;11.20;99.90;;;11.35;77.31;101270.34;5217325;28;20055;-83
2022/05/02 05:19:28;;;;;;;15.95;7.65;;;11.20;99.90;;;11.41;77.38;101279.31;5224775;28;20046;-83
2022/05/02 05:22:14;;;;;;;13.25;7.43;;;11.30;99.90;;;11.47;77.50;101278.63;5225059;28;20053;-83
2022/05/02 05:25:10;;;;;;;14.52;8.40;;;11.30;99.90;;;11.52;77.52;101282.31;5224786;28;20143;-83
2022/05/02 05:27:54;;;;;;;13.57;7.25;;;11.30;99.90;;;11.56;77.59;101280.72;5214557;28;20049;-83
2022/05/02 05:30:28;;;;;;;14.05;7.47;;;11.40;99.90;;;11.61;77.06;101274.84;5215560;28;20050;-84
2022/05/02 05:33:12;;;;;;;12.38;8.23;;;11.40;99.90;;;11.66;76.74;101275.91;5214937;28;20099;-85
2022/05/02 05:36:03;;;;;;;13.30;7.82;;;11.40;99.90;;;11.74;76.69;101278.81;5214927;28;20168;-84
2022/05/02 05:38:42;;;;;;;15.25;8.15;;;11.50;99.90;;;11.79;77.11;101277.25;5214236;28;20046;-84
2022/05/02 05:41:36;;;;;;;12.00;6.90;;;11.60;99.90;;;11.84;76.54;101278.34;5215224;28;20128;-85
2022/05/02 05:44:23;;;;;;;11.95;7.32;;;11.60;99.90;;;11.82;75.97;101279.16;5216712;28;20109;-83
2022/05/02 05:47:19;;;;;;;12.82;7.63;;;11.70;99.90;;;11.91;75.58;101287.31;5226674;28;20040;-84
2022/05/02 05:50:06;;;;;;;15.50;8.13;;;11.70;99.90;;;11.93;74.80;101277.78;5226607;28;20073;-85
2022/05/02 05:53:06;;;;;;;13.40;7.95;;;11.80;99.90;;;12.06;73.74;101298.34;5225903;28;20029;-83
2022/05/02 05:56:02;;;;;;;15.65;8.13;;;11.80;99.90;;;12.16;73.67;101287.38;5214321;28;20053;-83
2022/05/02 05:58:47;;;;;;;14.48;8.40;;;11.90;99.90;;;12.27;73.22;101298.22;5213409;28;20045;-85
2022/05/02 06:01:31;;;;;;;13.52;8.15;;;12.00;99.90;;;12.34;73.22;101291.50;5212842;28;20077;-85
2022/05/02 06:04:06;;;;;;;13.60;7.95;;;12.10;99.90;;;12.43;72.92;101284.84;5215994;28;20053;-84
2022/05/02 06:06:38;;;;;;;15.52;8.20;;;12.20;99.90;;;12.47;73.10;101280.63;5213364;28;20045;-84
2022/05/02 06:09:13;;;;;;;14.23;8.10;;;12.20;99.90;;;12.66;72.58;101283.03;5212260;28;20053;-82
2022/05/02 06:11:47;;;;;;;15.63;7.13;;;12.30;99.90;;;12.72;72.09;101282.38;5211554;28;20479;-84
2022/05/02 06:14:27;;;;;;;15.15;7.88;;;12.40;99.90;;;12.85;71.33;101294.13;5211544;28;20503;-84
2022/05/02 06:20:04;;;;;;;9.70;5.95;;;12.60;99.90;;;13.20;70.06;101288.34;5148802;28;20043;-84
2022/05/02 06:22:37;;;;;;;14.95;8.50;;;12.80;99.90;;;13.50;68.75;101287.53;5200155;28;20052;-83
2022/05/02 06:25:10;;;;;;;14.20;7.65;;;13.10;99.90;;;13.57;67.17;101295.63;5213133;28;20053;-83
2022/05/02 06:27:43;;;;;;;15.50;7.68;;;13.20;99.90;;;13.71;66.18;101287.28;5211218;28;20046;-83
2022/05/02 06:30:16;;;;;;;13.13;7.50;;;13.40;99.90;;;14.19;65.48;101290.41;5213122;28;20049;-84
2022/05/02 06:32:53;;;;;;;14.75;8.07;;;13.60;99.90;;;14.84;63.20;101295.69;5210787;28;20072;-83
2022/05/02 06:35:31;;;;;;;14.18;8.38;;;14.10;99.90;;;15.47;59.40;101284.94;5212654;28;20470;-84
2022/05/02 06:38:13;;;;;;;14.00;7.50;;;14.60;98.90;;;15.64;57.21;101295.84;5213543;28;20054;-87
2022/05/02 06:40:51;;;;;;;12.77;8.05;;;14.90;97.00;;;15.65;57.09;101302.91;5216117;28;20104;-85
2022/05/02 06:43:30;;;;;;;13.60;8.02;;;15.00;96.30;;;15.70;56.19;101293.38;5215888;28;20053;-85
2022/05/02 06:46:13;;;;;;;12.85;7.93;;;15.10;95.50;;;15.74;55.47;101300.47;5215920;28;20120;-85
2022/05/02 06:48:51;;;;;;;14.73;8.00;;;15.20;94.70;;;15.70;56.21;101288.09;5216655;28;20057;-88
2022/05/02 06:51:29;;;;;;;14.45;7.53;;;15.30;94.80;;;15.65;57.13;101293.28;5212887;28;20049;-85
2022/05/02 06:54:32;;;;;;;12.93;7.70;;;15.20;95.10;;;15.60;57.03;101294.88;5211863;28;20500;-82
2022/05/02 06:57:11;;;;;;;15.18;7.05;;;15.20;95.10;;;15.80;57.13;101297.97;5210916;28;20415;-83
2022/05/02 06:59:53;;;;;;;13.55;8.27;;;15.20;95.30;;;16.12;56.28;101297.75;5211887;28;20049;-84
2022/05/02 07:03:00;;;;;;;13.27;8.05;;;15.40;95.00;;;16.69;55.36;101302.34;5211435;28;20054;-85
2022/05/02 07:05:47;;;;;;;14.00;7.90;;;15.90;94.90;;;17.13;53.08;101297.88;5210833;28;20057;-85
2022/05/02 07:08:28;;;;;;;14.15;8.05;;;16.20;93.00;;;17.79;51.36;101298.84;5211718;28;20152;-85
2022/05/02 07:11:04;;;;;;;16.13;8.10;;;16.70;91.70;;;18.53;50.05;101293.59;5211314;28;20055;-85
2022/05/02 07:13:53;;;;;;;13.18;7.25;;;17.30;90.80;;;19.05;48.44;101291.47;5211257;28;20054;-86
2022/05/02 07:16:26;;;;;;;13.60;7.60;;;18.00;88.80;;;19.56;46.88;101295.34;5212607;28;20046;-87
2022/05/02 07:19:29;;;;;;;13.05;7.63;;;18.40;84.30;;;19.97;46.23;101297.34;5212511;28;20072;-87
2022/05/02 07:22:05;;;;;;;12.80;7.13;;;18.80;82.10;;;20.27;45.57;101300.06;5214145;28;20053;-87
2022/05/02 07:24:47;;;;;;;13.93;6.85;;;19.20;80.20;;;20.55;43.72;101293.13;5213810;28;20049;-86
2022/05/02 07:27:44;;;;;;;10.80;6.50;;;19.50;76.30;;;20.75;42.79;101294.94;5215628;28;20130;-85
2022/05/02 07:30:17;;;;;;;10.02;6.13;;;19.70;73.90;;;20.98;42.72;101287.84;5214768;28;20054;-87
2022/05/02 07:32:53;;;;;;;13.25;7.30;;;20.00;73.30;;;21.18;42.50;101285.19;5212630;28;20058;-84
2022/05/02 07:35:25;;;;;;;10.40;6.80;;;20.10;72.70;;;21.25;42.77;101281.63;5213285;28;20514;-84
2022/05/02 07:37:59;;;;;;;11.80;7.05;;;20.20;72.40;;;21.45;42.42;101289.59;5214064;28;20488;-84
2022/05/02 07:40:32;;;;;;;14.88;7.10;;;20.40;71.80;;;21.54;42.03;101288.72;5213121;28;20054;-82
2022/05/02 07:43:05;;;;;;;12.15;6.45;;;20.50;70.80;;;21.70;41.69;101285.13;5213217;28;20060;-84
2022/05/02 07:45:37;;;;;;;11.57;6.57;;;20.70;70.50;;;21.77;41.07;101292.16;5230192;28;20402;-84
2022/05/02 07:48:12;;;;;;;11.90;7.68;;;20.70;68.70;;;21.94;41.91;101290.34;5221150;28;20049;-81
2022/05/02 07:50:46;;;;;;;13.32;7.60;;;20.90;70.10;;;22.05;40.90;101287.66;5215065;28;20060;-82
2022/05/02 07:53:22;;;;;;;14.52;7.13;;;21.00;68.80;;;22.26;40.13;101280.50;5222700;28;20045;-82
2022/05/02 07:55:56;;;;;;;9.90;5.70;;;21.10;67.60;;;22.32;39.22;101291.97;5222341;28;20045;-82
2022/05/02 07:58:29;;;;;;;10.95;6.78;;;21.10;66.10;;;22.65;39.45;101287.31;5211835;28;20061;-82
2022/05/02 08:01:01;;;;;;;10.88;5.97;;;21.40;66.60;;;22.96;38.50;101286.25;5211932;28;20389;-83
2022/05/02 08:03:33;;;;;;;12.90;6.55;;;21.50;65.20;;;23.06;38.22;101281.72;5230261;28;20071;-86
2022/05/02 08:06:28;;;;;;;10.15;6.07;;;21.70;64.80;;;23.20;38.65;101284.22;5231474;28;20526;-84
2022/05/02 08:09:16;;;;;;;19.45;6.93;;;21.80;65.10;;;23.32;38.08;101277.91;5215791;28;20053;-85
2022/05/02 08:12:03;;;;;;;10.82;6.20;;;21.80;64.30;;;23.44;37.69;101267.16;5215690;28;20385;-85
2022/05/02 08:14:44;;;;;;;10.50;6.50;;;21.80;63.90;;;23.58;37.33;101274.97;5215606;28;20059;-86
2022/05/02 08:17:33;;;;;;;18.48;6.82;;;21.80;64.10;;;23.65;37.47;101274.94;5220836;28;20084;-84
2022/05/02 08:20:19;;;;;;;11.38;6.50;;;21.60;64.10;;;23.95;36.54;101273.69;5214843;28;20057;-86
2022/05/02 08:29:13;;;;;;;12.32;6.35;;;21.70;64.30;;;25.34;34.72;101265.34;5232351;28;20057;-85
2022/05/02 08:31:54;;;;;;;11.90;6.28;;;21.90;63.90;;;25.74;34.28;101268.13;5236140;28;20081;-85
2022/05/02 08:34:37;;;;;;;9.50;6.38;;;22.10;63.60;;;26.47;32.88;101266.56;5230401;28;20046;-84
2022/05/02 08:37:36;;;;;;;10.57;6.00;;;22.40;62.80;;;27.49;31.79;101262.19;5227887;28;20510;-87
2022/05/02 08:40:23;;;;;;;11.45;6.15;;;23.00;62.00;;;28.27;30.19;101268.81;5234286;28;20438;-86
2022/05/02 08:43:47;;;;;;;9.68;6.40;;;23.70;59.90;;;28.48;29.10;101266.41;5233251;28;20048;-83
2022/05/02 08:46:45;;;;;;;8.82;5.93;;;24.10;58.00;;;28.86;28.86;101266.03;5229802;28;20052;-85
2022/05/02 08:49:55;;;;;;;10.05;5.88;;;24.50;57.30;;;29.04;28.22;101255.66;5229504;28;20056;-84
2022/05/02 08:53:04;;;;;;;10.02;5.63;;;24.80;55.70;;;29.17;27.98;101254.28;5225693;28;20052;-83
2022/05/02 08:55:49;;;;;;;9.23;5.90;;;25.00;55.30;;;29.32;27.68;101261.78;5238769;28;20557;-84
2022/05/02 08:59:06;;;;;;;9.02;5.93;;;25.20;55.00;;;29.28;27.59;101254.81;5234673;28;20049;-85
2022/05/02 09:02:44;;;;;;;11.52;6.03;;;25.20;53.90;;;29.66;27.60;101257.91;5221463;28;20047;-84
2022/05/02 09:06:13;;;;;;;9.57;5.95;;;25.50;54.20;;;29.66;27.17;101257.91;5190990;28;20109;-84
2022/05/02 09:09:23;;;;;;;9.48;6.10;;;25.80;53.30;;;29.34;27.26;101262.63;5179247;28;20060;-83
2022/05/02 09:12:27;;;;;;;9.10;6.25;;;25.70;52.80;;;29.02;28.21;101252.16;5178168;28;20134;-84
2022/05/02 09:15:31;;;;;;;8.88;5.97;;;25.70;53.60;;;28.71;28.65;101254.97;5221768;28;20080;-83
2022/05/02 09:18:51;;;;;;;11.23;6.80;;;25.60;53.50;;;27.77;29.07;101260.50;5221477;28;20114;-84
2022/05/02 09:21:29;;;;;;;11.75;6.47;;;25.30;52.70;;;26.95;30.76;101252.91;5218735;28;20049;-83
2022/05/02 09:24:46;;;;;;;12.27;6.93;;;24.90;53.80;;;26.35;31.72;101249.91;5221424;28;20059;-83
2022/05/02 09:27:54;;;;;;;12.77;7.25;;;24.60;54.40;;;25.49;32.46;101243.69;5221321;28;20076;-83
2022/05/02 09:30:57;;;;;;;10.57;6.55;;;24.20;54.50;;;24.98;33.38;101241.06;5210020;28;20057;-84
2022/05/02 09:33:37;;;;;;;10.70;6.03;;;23.90;55.10;;;24.59;34.62;101237.28;5219555;28;20132;-83
2022/05/02 09:36:25;;;;;;;;;;;23.60;56.20;;;24.38;35.07;101243.81;5221109;28;20491;-84
2022/05/02 09:39:13;;;;;;;13.68;7.35;;;23.50;56.70;;;24.17;35.18;101241.44;5220073;28;19921;-85
2022/05/02 09:42:22;;;;;;;15.45;7.10;;;23.30;56.40;;;23.90;35.80;101235.59;5219495;28;20049;-85
2022/05/02 09:51:40;;;;;;;9.60;5.03;;;22.80;58.90;;;23.73;36.16;101232.25;5221548;28;20432;-82
2022/05/02 09:57:22;;;;;;;9.77;6.05;;;22.70;57.10;;;23.61;36.86;101232.38;5208919;28;20542;-84
2022/05/02 10:02:50;;;;;;;11.27;6.05;;;22.70;58.50;;;23.71;36.80;101218.97;5208939;28;20049;-76
2022/05/02 10:05:30;;;;;;;8.43;4.25;;;22.70;58.50;;;23.74;36.84;101218.06;5206303;28;20045;-76
2022/05/02 10:08:12;;;;;;;14.82;5.53;;;22.70;58.40;;;23.82;36.89;101213.50;5205872;28;20053;-76
2022/05/02 10:10:57;;;;;;;9.25;5.45;;;22.80;58.60;;;23.67;36.29;101217.25;5206399;28;20052;-80
2022/05/02 10:13:41;;;;;;;10.63;6.20;;;22.70;58.00;;;23.43;36.67;101207.75;5215346;28;20057;-85
2022/05/02 10:16:30;;;;;;;11.90;6.20;;;22.60;58.20;;;23.23;36.66;101221.28;5218999;28;20045;-85
2022/05/02 10:19:21;;;;;;;10.25;6.35;;;22.40;58.00;;;23.20;36.88;101210.66;5223578;28;20050;-81
2022/05/02 10:22:15;;;;;;;10.93;6.10;;;22.30;58.40;;;23.28;36.68;101210.59;5221888;28;20493;-85
2022/05/02 10:25:02;;;;;;;9.30;5.25;;;22.30;58.30;;;23.41;37.27;101208.66;5222980;28;20109;-82
2022/05/02 10:27:40;;;;;;;11.77;5.90;;;22.40;59.10;;;23.65;36.88;101204.84;5223740;28;20080;-83
2022/05/02 10:30:14;;;;;;;11.32;5.70;;;22.50;59.20;;;23.72;37.19;101202.09;5221922;28;20079;-82
2022/05/02 10:32:56;;;;;;;13.38;7.13;;;22.60;59.40;;;23.78;37.79;101203.78;5223512;28;20080;-83
2022/05/02 10:35:29;;;;;;;10.52;6.85;;;22.60;59.80;;;24.06;37.71;101194.53;5210902;28;20050;-81
2022/05/02 10:38:05;;;;;;;15.55;6.65;;;22.80;59.90;;;24.12;37.35;101192.66;5207683;28;20132;-77
2022/05/02 10:40:40;;;;;;;10.70;6.38;;;23.00;59.50;;;24.10;37.32;101190.91;5205985;28;20470;-77
2022/05/02 10:43:26;;;;;;;11.40;6.45;;;23.00;59.60;;;24.14;37.90;101190.88;5213522;28;20076;-84
2022/05/02 10:46:01;;;;;;;12.10;6.57;;;23.10;60.30;;;24.18;37.73;101180.13;5211566;28;20147;-79
2022/05/02 10:48:42;;;;;;;12.93;7.53;;;23.10;59.80;;;24.21;36.79;101181.91;5210840;28;20050;-79
2022/05/02 10:51:20;;;;;;;14.13;8.18;;;23.20;59.10;;;23.88;36.08;101177.94;5207301;28;20055;-79
2022/05/02 10:54:09;;;;;;;10.48;5.38;;;23.00;57.10;;;23.89;36.47;101169.94;5207372;28;20053;-77
2022/05/02 10:56:44;;;;;;;9.73;3.80;;;23.00;57.90;;;24.03;36.87;101177.72;5212706;28;20057;-79
2022/05/02 10:59:23;;;;;;;5.18;3.33;;;23.00;58.50;;;24.16;36.56;101167.75;5211489;28;20057;-78
2022/05/02 11:02:26;;;;;;;6.40;4.07;;;23.10;58.50;;;24.19;36.73;101163.28;5206652;28;20050;-79
2022/05/02 11:05:07;;;;;;;11.40;5.32;;;23.20;58.60;;;24.16;36.56;101163.31;5207984;28;20053;-78
2022/05/02 11:07:53;;;;;;;10.32;4.88;;;23.20;58.30;;;24.19;36.74;101159.72;5206110;28;20054;-76
2022/05/02 11:10:31;;;;;;;10.77;6.03;;;23.20;58.40;;;24.24;36.68;101160.53;5208483;28;20046;-84
2022/05/02 11:13:25;;;;;;;10.65;6.38;;;23.30;58.30;;;24.19;36.61;101159.72;5207654;28;20054;-81
2022/05/02 11:16:07;;;;;;;10.15;5.40;;;23.30;58.90;;;24.23;36.72;101153.44;5208101;28;20049;-83
2022/05/02 11:22:16;;;;;;;11.68;6.55;;;23.40;58.40;;;24.46;37.06;101142.47;5207705;28;20099;-82
2022/05/02 11:25:02;;;;;;;10.23;6.20;;;23.40;58.70;;;24.46;38.12;101146.00;5208066;28;20060;-83
2022/05/02 11:27:58;;;;;;;11.80;5.47;;;23.50;60.10;;;24.49;37.42;101140.59;5213013;28;20053;-80
2022/05/02 11:30:40;;;;;;;11.73;6.55;;;23.50;59.50;;;24.52;37.45;101139.69;5213025;28;20049;-83
2022/05/02 11:33:24;;;;;;;13.77;7.07;;;23.50;59.20;;;24.44;36.90;101131.81;5211251;28;20132;-83